createdAt,value
2022-08-14T00:02:03.024Z,25.51
2022-08-14T00:04:35.702Z,25.54
2022-08-14T00:07:14.042Z,25.52
2022-08-14T00:09:56.354Z,25.50
2022-08-14T00:12:33.071Z,25.52
2022-08-14T00:15:10.249Z,25.49
2022-08-14T00:17:47.314Z,25.47
2022-08-14T00:20:24.137Z,25.42
2022-08-14T00:22:58.939Z,25.37
2022-08-14T00:25:42.277Z,25.37
2022-08-14T00:28:15.562Z,25.36
2022-08-14T00:30:46.933Z,25.33
2022-08-14T00:33:16.920Z,25.35
2022-08-14T00:36:35.627Z,25.33
2022-08-14T00:38:34.861Z,25.15
2022-08-14T00:41:04.515Z,25.11
2022-08-14T00:43:32.727Z,25.28
2022-08-14T00:46:05.296Z,25.26
2022-08-14T00:48:38.636Z,25.27
2022-08-14T00:51:11.631Z,25.22
2022-08-14T00:53:43.016Z,25.14
2022-08-14T00:56:15.580Z,25.24
2022-08-14T00:58:45.314Z,25.24
2022-08-14T01:01:19.109Z,25.25
2022-08-14T01:03:52.754Z,25.24
2022-08-14T01:06:21.780Z,25.31
2022-08-14T01:08:52.169Z,25.21
2022-08-14T01:11:31.697Z,25.26
2022-08-14T01:14:25.297Z,25.25
2022-08-14T01:16:55.605Z,25.22
2022-08-14T01:19:43.656Z,25.22
2022-08-14T01:22:13.468Z,25.18
2022-08-14T01:24:46.806Z,25.19
2022-08-14T01:27:18.112Z,25.17
2022-08-14T01:30:00.696Z,25.14
2022-08-14T01:32:42.542Z,25.09
2022-08-14T01:35:20.850Z,25.18
2022-08-14T01:38:00.979Z,25.20
2022-08-14T01:40:36.116Z,25.19
2022-08-14T01:43:18.710Z,25.18
2022-08-14T01:45:57.917Z,25.14
2022-08-14T01:48:37.539Z,25.20
2022-08-14T01:51:19.395Z,25.22
2022-08-14T01:53:54.713Z,25.21
2022-08-14T01:56:30.742Z,25.20
2022-08-14T01:59:07.761Z,25.22
2022-08-14T02:01:41.890Z,25.19
2022-08-14T02:04:40.793Z,25.10
2022-08-14T02:06:58.951Z,25.06
2022-08-14T02:09:28.119Z,25.13
2022-08-14T02:11:59.823Z,25.10
2022-08-14T02:14:32.127Z,25.05
2022-08-14T02:17:01.300Z,25.08
2022-08-14T02:19:32.438Z,25.03
2022-08-14T02:22:03.406Z,25.03
2022-08-14T02:24:40.102Z,24.97
2022-08-14T02:28:24.891Z,24.94
2022-08-14T02:30:00.826Z,24.94
2022-08-14T02:32:37.039Z,24.91
2022-08-14T02:35:16.722Z,24.90
2022-08-14T02:37:47.487Z,24.87
2022-08-14T02:40:18.297Z,24.91
2022-08-14T02:42:54.890Z,24.94
2022-08-14T02:45:33.494Z,24.99
2022-08-14T02:48:10.350Z,25.01
2022-08-14T02:50:56.816Z,25.03
2022-08-14T02:53:29.410Z,25.05
2022-08-14T02:56:03.289Z,25.06
2022-08-14T02:58:33.353Z,25.04
2022-08-14T03:01:01.927Z,25.06
2022-08-14T03:03:31.855Z,25.06
2022-08-14T03:06:05.246Z,25.02
2022-08-14T03:08:34.184Z,25.01
2022-08-14T03:11:06.554Z,24.97
2022-08-14T03:13:36.340Z,24.91
2022-08-14T03:16:08.910Z,24.93
2022-08-14T03:18:42.333Z,24.93
2022-08-14T03:21:13.647Z,24.88
2022-08-14T03:23:42.311Z,24.88
2022-08-14T03:26:18.461Z,24.86
2022-08-14T03:29:01.183Z,24.80
2022-08-14T03:31:30.085Z,24.77
2022-08-14T03:33:59.867Z,24.69
2022-08-14T03:37:39.128Z,24.75
2022-08-14T03:39:22.450Z,24.76
2022-08-14T03:41:54.429Z,24.80
2022-08-14T03:45:25.876Z,24.80
2022-08-14T03:47:15.143Z,24.81
2022-08-14T03:49:44.745Z,24.85
2022-08-14T03:52:37.935Z,24.83
2022-08-14T03:55:06.672Z,24.84
2022-08-14T03:57:37.323Z,24.79
2022-08-14T04:00:13.451Z,24.80
2022-08-14T04:02:55.537Z,24.77
2022-08-14T04:05:23.494Z,24.80
2022-08-14T04:08:08.569Z,24.77
2022-08-14T04:10:39.529Z,24.74
2022-08-14T04:13:08.714Z,24.68
2022-08-14T04:15:40.887Z,24.66
2022-08-14T04:18:23.793Z,24.63
2022-08-14T04:20:55.233Z,24.60
2022-08-14T04:23:30.025Z,24.57
2022-08-14T04:26:02.177Z,24.56
2022-08-14T04:29:07.529Z,24.54
2022-08-14T04:32:56.677Z,24.51
2022-08-14T04:34:10.002Z,24.49
2022-08-14T04:37:07.463Z,24.45
2022-08-14T04:39:57.149Z,24.44
2022-08-14T04:42:52.162Z,24.38
2022-08-14T04:45:23.679Z,24.34
2022-08-14T04:48:10.395Z,24.33
2022-08-14T04:50:43.814Z,24.27
2022-08-14T04:53:15.598Z,24.29
2022-08-14T04:55:50.007Z,24.25
2022-08-14T04:58:32.844Z,24.24
2022-08-14T05:01:06.153Z,24.18
2022-08-14T05:03:41.122Z,24.19
2022-08-14T05:06:37.945Z,24.19
2022-08-14T05:09:00.726Z,24.23
2022-08-14T05:11:36.702Z,24.20
2022-08-14T05:14:16.779Z,24.24
2022-08-14T05:16:59.273Z,24.20
2022-08-14T05:19:30.005Z,24.17
2022-08-14T05:22:17.571Z,24.20
2022-08-14T05:24:49.716Z,24.19
2022-08-14T05:27:22.902Z,24.18
2022-08-14T05:29:55.129Z,24.20
2022-08-14T05:32:26.854Z,24.17
2022-08-14T05:34:58.176Z,24.19
2022-08-14T05:37:27.165Z,24.23
2022-08-14T05:39:56.291Z,24.23
2022-08-14T05:42:26.894Z,24.23
2022-08-14T05:44:55.895Z,24.28
2022-08-14T05:47:28.542Z,24.31
2022-08-14T05:49:58.319Z,24.34
2022-08-14T05:52:39.002Z,24.36
2022-08-14T05:55:09.671Z,24.41
2022-08-14T05:57:47.538Z,24.45
2022-08-14T06:00:28.403Z,24.51
2022-08-14T06:03:00.085Z,24.57
2022-08-14T06:05:29.551Z,24.56
2022-08-14T06:07:58.649Z,24.53
2022-08-14T06:10:30.014Z,24.58
2022-08-14T06:13:01.893Z,24.62
2022-08-14T06:15:30.512Z,24.64
2022-08-14T06:18:01.776Z,24.67
2022-08-14T06:20:30.478Z,24.64
2022-08-14T06:22:59.151Z,24.69
2022-08-14T06:25:27.986Z,24.71
2022-08-14T06:27:58.187Z,24.75
2022-08-14T06:30:45.620Z,24.80
2022-08-14T06:33:18.020Z,24.84
2022-08-14T06:35:47.011Z,24.85
2022-08-14T06:38:17.898Z,24.87
2022-08-14T06:40:47.143Z,24.88
2022-08-14T06:43:16.931Z,24.90
2022-08-14T06:45:50.195Z,24.93
2022-08-14T06:48:24.988Z,24.87
2022-08-14T06:50:54.743Z,24.95
2022-08-14T06:53:27.766Z,25.03
2022-08-14T06:56:02.154Z,25.07
2022-08-14T06:58:32.348Z,25.06
2022-08-14T07:01:26.980Z,25.10
2022-08-14T07:04:23.922Z,25.15
2022-08-14T07:06:55.763Z,25.19
2022-08-14T07:09:43.659Z,25.23
2022-08-14T07:12:34.770Z,25.26
2022-08-14T07:15:07.170Z,25.29
2022-08-14T07:17:36.519Z,25.35
2022-08-14T07:20:07.620Z,25.36
2022-08-14T07:22:56.079Z,25.39
2022-08-14T07:25:32.217Z,25.39
2022-08-14T07:28:01.103Z,25.43
2022-08-14T07:30:33.702Z,25.45
2022-08-14T07:33:03.303Z,25.49
2022-08-14T07:35:42.928Z,25.50
2022-08-14T07:38:22.811Z,25.55
2022-08-14T07:40:53.012Z,25.56
2022-08-14T07:43:21.642Z,25.57
2022-08-14T07:45:51.028Z,25.61
2022-08-14T07:48:25.085Z,25.65
2022-08-14T07:51:03.151Z,25.67
2022-08-14T07:53:40.414Z,25.72
2022-08-14T07:56:43.655Z,25.72
2022-08-14T07:58:58.790Z,25.72
2022-08-14T08:01:29.872Z,25.75
2022-08-14T08:04:00.415Z,25.77
2022-08-14T08:06:30.709Z,25.79
2022-08-14T08:09:02.851Z,25.82
2022-08-14T08:11:35.045Z,25.85
2022-08-14T08:14:16.301Z,25.91
2022-08-14T08:16:47.322Z,25.97
2022-08-14T08:19:19.329Z,25.97
2022-08-14T08:21:48.684Z,25.99
2022-08-14T08:24:18.706Z,25.96
2022-08-14T08:26:48.101Z,25.98
2022-08-14T08:29:28.233Z,26.00
2022-08-14T08:32:01.695Z,26.07
2022-08-14T08:34:33.153Z,26.09
2022-08-14T08:37:07.104Z,26.16
2022-08-14T08:40:03.120Z,26.16
2022-08-14T08:42:44.537Z,26.19
2022-08-14T08:45:17.192Z,26.25
2022-08-14T08:47:46.531Z,26.32
2022-08-14T08:50:31.564Z,26.33
2022-08-14T08:53:02.756Z,26.37
2022-08-14T08:55:34.051Z,26.40
2022-08-14T08:58:05.568Z,26.39
2022-08-14T09:00:49.012Z,26.44
2022-08-14T09:03:20.623Z,26.48
2022-08-14T09:05:54.383Z,26.52
2022-08-14T09:08:31.251Z,26.55
2022-08-14T09:11:19.137Z,26.57
2022-08-14T09:13:49.937Z,26.51
2022-08-14T09:16:21.089Z,26.60
2022-08-14T09:21:32.002Z,26.66
2022-08-14T09:24:26.244Z,26.72
2022-08-14T09:26:50.035Z,26.76
2022-08-14T09:29:20.132Z,26.77
2022-08-14T09:31:57.708Z,26.74
2022-08-14T09:34:58.390Z,26.77
2022-08-14T09:37:41.850Z,26.81
2022-08-14T09:40:20.803Z,26.85
2022-08-14T09:42:59.561Z,26.89
2022-08-14T09:45:40.023Z,26.89
2022-08-14T09:48:27.722Z,26.96
2022-08-14T09:54:19.430Z,27.05
2022-08-14T09:56:30.622Z,27.11
2022-08-14T09:59:15.303Z,27.19
2022-08-14T10:01:46.114Z,27.23
2022-08-14T10:04:35.783Z,27.19
2022-08-14T10:07:08.460Z,27.23
2022-08-14T10:09:59.440Z,27.30
2022-08-14T10:12:44.872Z,27.57
2022-08-14T10:15:18.571Z,27.62
2022-08-14T10:17:50.883Z,27.69
2022-08-14T10:20:40.326Z,27.70
2022-08-14T10:23:16.170Z,27.82
2022-08-14T10:25:51.126Z,27.63
2022-08-14T10:28:39.460Z,27.74
2022-08-14T10:31:25.631Z,28.26
2022-08-14T10:34:13.479Z,28.47
2022-08-14T10:36:47.601Z,28.80
2022-08-14T10:39:18.761Z,29.40
2022-08-14T10:41:48.726Z,29.67
2022-08-14T10:44:21.365Z,30.12
2022-08-14T10:47:40.014Z,30.35
2022-08-14T10:49:56.372Z,30.12
2022-08-14T10:52:26.549Z,30.59
2022-08-14T10:55:08.191Z,30.86
2022-08-14T10:57:36.616Z,31.10
2022-08-14T11:00:20.785Z,30.73
2022-08-14T11:03:01.451Z,30.25
2022-08-14T11:05:41.723Z,30.87
2022-08-14T11:08:13.880Z,31.54
2022-08-14T11:10:45.170Z,32.02
2022-08-14T11:13:21.298Z,32.10
2022-08-14T11:15:56.152Z,31.99
2022-08-14T11:18:32.136Z,32.29
2022-08-14T11:21:06.918Z,32.56
2022-08-14T11:23:39.886Z,32.80
2022-08-14T11:26:12.075Z,32.95
2022-08-14T11:28:46.988Z,32.45
2022-08-14T11:31:21.926Z,31.77
2022-08-14T11:33:56.806Z,31.93
2022-08-14T11:36:35.314Z,31.53
2022-08-14T11:39:34.264Z,31.84
2022-08-14T11:42:55.377Z,32.38
2022-08-14T11:44:59.745Z,32.91
2022-08-14T11:47:35.111Z,33.13
2022-08-14T11:50:24.997Z,33.54
2022-08-14T11:53:04.516Z,33.73
2022-08-14T11:55:35.980Z,34.03
2022-08-14T11:58:09.511Z,34.11
2022-08-14T12:00:47.713Z,34.30
2022-08-14T12:03:27.196Z,34.38
2022-08-14T12:06:27.850Z,34.33
2022-08-14T12:08:59.816Z,34.74
2022-08-14T12:11:43.113Z,34.85
2022-08-14T12:14:13.553Z,34.63
2022-08-14T12:17:02.120Z,33.67
2022-08-14T12:19:33.727Z,32.89
2022-08-14T12:22:03.379Z,32.50
2022-08-14T12:24:36.902Z,32.57
2022-08-14T12:27:08.391Z,32.25
2022-08-14T12:29:37.585Z,32.21
2022-08-14T12:32:08.893Z,32.74
2022-08-14T12:34:40.194Z,33.49
2022-08-14T12:37:13.777Z,33.48
2022-08-14T12:39:44.909Z,34.10
2022-08-14T12:42:34.213Z,34.28
2022-08-14T12:45:03.966Z,34.21
2022-08-14T12:47:32.537Z,34.01
2022-08-14T12:50:02.485Z,33.23
2022-08-14T12:52:36.136Z,33.12
2022-08-14T12:55:18.274Z,33.04
2022-08-14T12:57:47.759Z,32.73
2022-08-14T13:00:23.788Z,32.34
2022-08-14T13:02:55.328Z,32.01
2022-08-14T13:05:29.971Z,32.00
2022-08-14T13:08:00.591Z,31.55
2022-08-14T13:10:47.145Z,31.36
2022-08-14T13:13:18.472Z,31.39
2022-08-14T13:15:56.240Z,31.32
2022-08-14T13:18:27.730Z,31.29
2022-08-14T13:21:01.297Z,31.26
2022-08-14T13:23:36.062Z,31.21
2022-08-14T13:26:04.557Z,31.44
2022-08-14T13:28:39.824Z,31.36
2022-08-14T13:31:29.865Z,31.43
2022-08-14T13:34:00.216Z,31.29
2022-08-14T13:36:54.819Z,31.48
2022-08-14T13:39:19.598Z,31.22
2022-08-14T13:41:48.654Z,31.18
2022-08-14T13:44:28.774Z,31.09
2022-08-14T13:46:58.222Z,31.03
2022-08-14T13:49:26.313Z,30.99
2022-08-14T13:51:59.532Z,31.01
2022-08-14T13:54:32.721Z,30.90
2022-08-14T13:57:03.679Z,31.03
2022-08-14T13:59:37.290Z,31.29
2022-08-14T14:02:08.178Z,31.24
2022-08-14T14:04:40.492Z,31.10
2022-08-14T14:07:12.976Z,31.47
2022-08-14T14:09:52.743Z,31.79
2022-08-14T14:12:38.248Z,31.92
2022-08-14T14:15:11.991Z,31.85
2022-08-14T14:17:40.583Z,31.68
2022-08-14T14:20:35.037Z,31.72
2022-08-14T14:23:11.681Z,31.46
2022-08-14T14:25:46.086Z,31.27
2022-08-14T14:28:24.620Z,31.22
2022-08-14T14:30:57.000Z,31.10
2022-08-14T14:33:46.731Z,31.18
2022-08-14T14:36:21.364Z,31.35
2022-08-14T14:38:55.515Z,31.30
2022-08-14T14:41:25.682Z,31.42
2022-08-14T14:43:54.809Z,31.48
2022-08-14T14:46:35.997Z,31.63
2022-08-14T14:49:14.440Z,31.33
2022-08-14T14:51:51.173Z,31.37
2022-08-14T14:54:30.892Z,31.56
2022-08-14T14:57:00.223Z,31.53
2022-08-14T14:59:31.034Z,31.35
2022-08-14T15:02:08.151Z,31.18
2022-08-14T15:04:38.675Z,31.02
2022-08-14T15:07:12.585Z,30.97
2022-08-14T15:09:42.626Z,30.88
2022-08-14T15:12:34.802Z,30.66
2022-08-14T15:15:08.652Z,30.92
2022-08-14T15:17:41.505Z,31.01
2022-08-14T15:20:17.510Z,31.39
2022-08-14T15:22:51.313Z,31.57
2022-08-14T15:25:20.989Z,31.79
2022-08-14T15:27:51.087Z,31.85
2022-08-14T15:30:23.565Z,31.86
2022-08-14T15:32:53.259Z,31.94
2022-08-14T15:35:22.697Z,32.04
2022-08-14T15:37:55.711Z,32.02
2022-08-14T15:40:25.564Z,32.09
2022-08-14T15:42:53.455Z,32.04
2022-08-14T15:45:24.026Z,32.14
2022-08-14T15:47:52.060Z,32.05
2022-08-14T15:50:19.951Z,31.92
2022-08-14T15:52:48.239Z,31.81
2022-08-14T15:55:17.383Z,31.72
2022-08-14T15:57:51.430Z,31.20
2022-08-14T16:00:50.186Z,31.46
2022-08-14T16:03:27.612Z,31.42
2022-08-14T16:06:04.628Z,31.39
2022-08-14T16:08:33.690Z,31.65
2022-08-14T16:11:05.123Z,31.69
2022-08-14T16:13:42.942Z,31.74
2022-08-14T16:16:50.022Z,31.78
2022-08-14T16:19:09.673Z,31.79
2022-08-14T16:22:02.232Z,31.80
2022-08-14T16:24:33.004Z,31.78
2022-08-14T16:27:05.235Z,31.59
2022-08-14T16:29:37.895Z,31.46
2022-08-14T16:32:32.485Z,31.41
2022-08-14T16:34:57.410Z,31.32
2022-08-14T16:37:31.027Z,31.22
2022-08-14T16:40:03.922Z,31.09
2022-08-14T16:42:39.061Z,31.06
2022-08-14T16:45:26.139Z,31.09
2022-08-14T16:47:55.925Z,31.13
2022-08-14T16:50:40.510Z,31.01
2022-08-14T16:53:12.725Z,31.16
2022-08-14T16:55:51.017Z,31.14
2022-08-14T16:58:29.874Z,30.93
2022-08-14T17:01:22.986Z,30.96
2022-08-14T17:03:58.107Z,30.90
2022-08-14T17:06:49.723Z,30.85
2022-08-14T17:09:36.945Z,30.69
2022-08-14T17:12:33.412Z,30.65
2022-08-14T17:15:10.539Z,30.67
2022-08-14T17:17:58.045Z,30.64
2022-08-14T17:20:53.653Z,30.60
2022-08-14T17:23:16.058Z,30.48
2022-08-14T17:25:49.496Z,30.57
2022-08-14T17:31:09.364Z,30.42
2022-08-14T17:33:40.417Z,30.40
2022-08-14T17:36:21.098Z,30.33
2022-08-14T17:39:06.663Z,30.11
2022-08-14T17:41:37.887Z,30.07
2022-08-14T17:44:34.218Z,30.03
2022-08-14T17:47:13.417Z,29.80
2022-08-14T17:49:51.678Z,30.01
2022-08-14T17:52:34.682Z,29.91
2022-08-14T17:55:07.005Z,29.97
2022-08-14T17:57:41.159Z,29.96
2022-08-14T18:00:12.605Z,29.91
2022-08-14T18:02:51.011Z,29.82
2022-08-14T18:06:07.143Z,29.73
2022-08-14T18:08:32.019Z,29.65
2022-08-14T18:11:00.510Z,29.60
2022-08-14T18:13:51.324Z,29.54
2022-08-14T18:16:20.506Z,29.34
2022-08-14T18:18:51.695Z,29.38
2022-08-14T18:21:42.863Z,29.31
2022-08-14T18:24:28.287Z,29.31
2022-08-14T18:27:08.859Z,29.18
2022-08-14T18:29:43.379Z,29.14
2022-08-14T18:32:47.497Z,29.09
2022-08-14T18:35:45.273Z,29.04
2022-08-14T18:38:25.555Z,28.95
2022-08-14T18:40:56.188Z,28.92
2022-08-14T18:43:44.280Z,28.94
2022-08-14T18:46:59.528Z,28.98
2022-08-14T18:49:15.331Z,28.89
2022-08-14T18:51:44.950Z,28.80
2022-08-14T18:54:33.013Z,28.73
2022-08-14T18:57:04.028Z,28.72
2022-08-14T18:59:39.309Z,28.66
2022-08-14T19:02:43.266Z,28.63
2022-08-14T19:05:12.304Z,28.47
2022-08-14T19:07:40.851Z,28.53
2022-08-14T19:10:17.009Z,28.50
2022-08-14T19:13:11.754Z,28.46
2022-08-14T19:15:42.892Z,28.36
2022-08-14T19:18:26.420Z,28.22
2022-08-14T19:20:58.264Z,28.16
2022-08-14T19:23:43.308Z,28.08
2022-08-14T19:26:36.707Z,27.99
2022-08-14T19:29:37.955Z,27.98
2022-08-14T19:32:39.362Z,27.91
2022-08-14T19:35:49.009Z,27.87
2022-08-14T19:38:51.973Z,27.81
2022-08-14T19:41:23.872Z,27.79
2022-08-14T19:44:10.481Z,27.70
2022-08-14T19:47:00.005Z,27.68
2022-08-14T19:50:07.351Z,27.62
2022-08-14T19:52:22.719Z,27.60
2022-08-14T19:54:51.502Z,27.55
2022-08-14T19:57:23.642Z,27.55
2022-08-14T20:00:01.895Z,27.54
2022-08-14T20:02:41.843Z,27.50
2022-08-14T20:05:11.383Z,27.47
2022-08-14T20:07:59.309Z,27.41
2022-08-14T20:11:07.361Z,27.40
2022-08-14T20:13:29.457Z,27.38
2022-08-14T20:16:12.098Z,27.37
2022-08-14T20:18:51.621Z,27.30
2022-08-14T20:21:21.345Z,27.29
2022-08-14T20:23:50.251Z,27.26
2022-08-14T20:26:32.017Z,27.27
2022-08-14T20:29:07.152Z,27.23
2022-08-14T20:31:38.457Z,27.21
2022-08-14T20:34:24.989Z,27.17
2022-08-14T20:37:09.686Z,27.12
2022-08-14T20:39:43.658Z,27.12
2022-08-14T20:42:32.707Z,27.05
2022-08-14T20:45:23.712Z,27.05
2022-08-14T20:47:57.739Z,26.98
2022-08-14T20:50:28.939Z,26.95
2022-08-14T20:52:57.970Z,26.89
2022-08-14T20:55:29.266Z,26.87
2022-08-14T20:58:03.905Z,26.82
2022-08-14T21:01:00.590Z,26.78
2022-08-14T21:03:33.773Z,26.74
2022-08-14T21:06:17.346Z,26.71
2022-08-14T21:08:49.807Z,26.68
2022-08-14T21:11:21.315Z,26.65
2022-08-14T21:14:20.550Z,26.63
2022-08-14T21:16:57.951Z,26.65
2022-08-14T21:19:28.573Z,26.63
2022-08-14T21:21:58.687Z,26.65
2022-08-14T21:24:39.242Z,26.66
2022-08-14T21:27:21.970Z,26.63
2022-08-14T21:29:56.014Z,26.63
2022-08-14T21:32:47.219Z,26.59
2022-08-14T21:35:28.504Z,26.55
2022-08-14T21:37:57.175Z,26.54
2022-08-14T21:40:42.507Z,26.52
2022-08-14T21:43:18.258Z,26.46
2022-08-14T21:45:53.515Z,26.41
2022-08-14T21:48:25.381Z,26.40
2022-08-14T21:51:02.261Z,26.37
2022-08-14T21:53:58.690Z,26.38
2022-08-14T21:56:37.411Z,26.33
2022-08-14T21:59:10.711Z,26.32
2022-08-14T22:02:00.859Z,26.33
2022-08-14T22:04:32.182Z,26.31
2022-08-14T22:07:03.509Z,26.28
2022-08-14T22:09:36.562Z,26.27
2022-08-14T22:12:07.303Z,26.24
2022-08-14T22:14:43.476Z,26.25
2022-08-14T22:17:16.301Z,26.23
2022-08-14T22:19:54.577Z,26.24
2022-08-14T22:22:26.408Z,26.22
2022-08-14T22:24:59.754Z,26.21
2022-08-14T22:27:29.416Z,26.20
2022-08-14T22:29:58.628Z,26.16
2022-08-14T22:32:55.992Z,26.13
2022-08-14T22:35:15.715Z,26.06
2022-08-14T22:37:45.353Z,26.06
2022-08-14T22:40:57.619Z,25.98
2022-08-14T22:43:19.658Z,25.96
2022-08-14T22:45:55.388Z,25.93
2022-08-14T22:48:23.779Z,25.93
2022-08-14T22:50:53.724Z,25.91
2022-08-14T22:53:23.318Z,25.92
2022-08-14T22:55:52.142Z,25.91
2022-08-14T22:58:31.440Z,25.88
2022-08-14T23:01:01.423Z,25.85
2022-08-14T23:03:34.153Z,25.91
2022-08-14T23:07:02.436Z,25.92
2022-08-14T23:09:01.505Z,25.95
2022-08-14T23:11:42.488Z,25.97
2022-08-14T23:14:12.423Z,25.98
2022-08-14T23:16:42.617Z,25.99
2022-08-14T23:19:11.271Z,25.93
2022-08-14T23:21:39.357Z,25.94
2022-08-14T23:24:17.010Z,25.94
2022-08-14T23:26:53.861Z,25.90
2022-08-14T23:29:22.359Z,25.88
2022-08-14T23:31:50.734Z,25.86
2022-08-14T23:34:21.272Z,25.84
2022-08-14T23:36:53.340Z,25.79
2022-08-14T23:39:30.540Z,25.74
2022-08-14T23:42:03.780Z,25.75
2022-08-14T23:44:35.355Z,25.76
2022-08-14T23:47:10.805Z,25.79
2022-08-14T23:49:56.668Z,25.83
2022-08-14T23:52:50.401Z,25.83
2022-08-14T23:55:18.777Z,25.82
2022-08-14T23:57:57.698Z,25.78
